首页
METAR-TAF:

METAR-TAF

机场 :

诺福克海军基地

諾福克, 弗吉尼亚州, 美国

纬度: 36-56-01N, 经度: 076-17-45W, 海拔: 4米

当前天气观测

该预报发布于40分钟前的17:59 UTC
风速6节,风向
温度 12°C
湿度 88%
气压 1022 hPa
能見度: 14.5公里
少量云层高于4000英尺
阴天层高于5500英尺

METAR: KNGU 241759Z COR 08006KT 9SM FEW040 OVC055 12/10 A3019 RMK AO2 SLP223 60000 T01220100 10122 20072 57027

时间: 13:39 (18:39 UTC)

预报

预报有效从24日的 15点(UTC)到 25日的 15点(UTC)
风速8节,风向东转东北
能見度: 9000
少量云层高于700英尺
散云层高于2500英尺
阴天层高于6000英尺
轻雾
短暂存在
从 24日的 15点(UTC)到 24日的 19点(UTC)
能見度: 4800
散云层高于700英尺
多云层高于1400英尺
阴天层高于6000英尺
轻雾
从 25日的 0300点(UTC)
风速10节,风向
能見度: 8000
散云层高于1400英尺
多云层高于3000英尺
阴天层高于12000英尺
轻雾
从 25日的 0900点(UTC)
风速15节,风向南转南东,有时为22节阵风
能见度10公里或以上
散云层高于1200英尺
多云层高于2000英尺
阴天层高于4500英尺
附近有阵雨

TAF: KNGU 2415/2515 06008KT 9000 BR FEW007 SCT025 OVC060 QNH3002INS TEMPO 2415/2419 4800 BR SCT007 BKN014 OVC060 FM250300 10010KT 8000 BR SCT014 BKN030 OVC120 QNH2984INS FM250900 15015G22KT 9999 VCSH SCT012 BKN020 OVC045 QNH2981INS T16/2419Z T11/2512Z FN20000

超过4000个机场的气象观测和天气预报(METAR&TAF报告)。

可查询的气象台以黄色和红色小点在地图上表示。

将鼠标移到小点上方,可查看气象台名称。

然后点击查看天气观测和预报。

如需切换地图:点击带黑十字的绿色按钮放大地图;点击带横线的绿色按钮缩小地图;或者点击绿色箭头查看邻近地区的地图。


METAR-TAF: